createdAt,value
2022-10-05T00:02:01.540Z,8.35
2022-10-05T00:04:30.436Z,10.45
2022-10-05T00:07:02.341Z,11.32
2022-10-05T00:12:01.200Z,9.95
2022-10-05T00:14:36.471Z,12.98
2022-10-05T00:17:06.546Z,8.45
2022-10-05T00:19:38.282Z,11.77
2022-10-05T00:22:13.082Z,10.20
2022-10-05T00:24:42.247Z,12.00
2022-10-05T00:27:21.094Z,11.00
2022-10-05T00:29:53.148Z,15.50
2022-10-05T00:32:22.016Z,9.55
2022-10-05T00:34:51.360Z,10.57
2022-10-05T00:37:23.496Z,11.65
2022-10-05T00:39:52.705Z,10.68
2022-10-05T00:42:35.138Z,10.07
2022-10-05T00:45:10.764Z,16.10
2022-10-05T00:47:55.343Z,8.40
2022-10-05T00:50:43.287Z,10.52
2022-10-05T00:53:22.786Z,8.70
2022-10-05T00:56:02.064Z,10.18
2022-10-05T00:58:44.090Z,9.63
2022-10-05T01:01:16.509Z,10.68
2022-10-05T01:03:57.517Z,10.63
2022-10-05T01:06:36.429Z,6.82
2022-10-05T01:09:13.960Z,8.07
2022-10-05T01:11:52.321Z,17.92
2022-10-05T01:14:29.463Z,7.95
2022-10-05T01:17:04.468Z,8.63
2022-10-05T01:19:52.355Z,12.30
2022-10-05T01:22:31.395Z,8.68
2022-10-05T01:25:15.520Z,9.70
2022-10-05T01:27:56.058Z,10.77
2022-10-05T01:30:25.370Z,7.90
2022-10-05T01:33:03.344Z,8.25
2022-10-05T01:35:46.147Z,7.20
2022-10-05T01:38:30.905Z,9.82
2022-10-05T01:41:07.726Z,10.07
2022-10-05T01:43:43.509Z,9.77
2022-10-05T01:46:25.116Z,8.77
2022-10-05T01:49:08.034Z,10.98
2022-10-05T01:51:51.301Z,11.40
2022-10-05T01:54:27.663Z,8.00
2022-10-05T01:57:09.407Z,9.32
2022-10-05T01:59:53.300Z,8.38
2022-10-05T02:02:25.622Z,11.90
2022-10-05T02:05:02.857Z,9.23
2022-10-05T02:07:36.338Z,10.30
2022-10-05T02:10:12.308Z,10.95
2022-10-05T02:12:44.333Z,10.05
2022-10-05T02:15:18.774Z,7.30
2022-10-05T02:17:51.708Z,8.93
2022-10-05T02:20:26.417Z,10.65
2022-10-05T02:22:58.260Z,13.45
2022-10-05T02:25:30.457Z,13.02
2022-10-05T02:28:03.919Z,9.90
2022-10-05T02:30:41.073Z,10.40
2022-10-05T02:33:17.354Z,10.57
2022-10-05T02:35:46.404Z,9.32
2022-10-05T02:38:25.110Z,8.75
2022-10-05T02:41:02.047Z,8.77
2022-10-05T02:43:41.721Z,8.95
2022-10-05T02:46:23.385Z,9.90
2022-10-05T02:49:06.932Z,10.15
2022-10-05T02:51:45.369Z,8.63
2022-10-05T02:54:24.703Z,8.50
2022-10-05T02:57:01.925Z,9.18
2022-10-05T02:59:38.701Z,6.97
2022-10-05T03:02:20.017Z,8.93
2022-10-05T03:04:57.336Z,9.40
2022-10-05T03:07:34.125Z,15.73
2022-10-05T03:10:13.072Z,8.02
2022-10-05T03:12:53.041Z,9.07
2022-10-05T03:16:09.405Z,7.30
2022-10-05T03:18:57.068Z,9.20
2022-10-05T03:21:42.544Z,8.38
2022-10-05T03:24:28.701Z,7.07
2022-10-05T03:27:05.526Z,9.32
2022-10-05T03:29:42.101Z,9.85
2022-10-05T03:32:23.045Z,9.30
2022-10-05T03:35:01.794Z,7.37
2022-10-05T03:37:40.069Z,7.00
2022-10-05T03:40:14.868Z,8.05
2022-10-05T03:43:05.994Z,8.07
2022-10-05T03:45:42.181Z,14.00
2022-10-05T03:48:15.759Z,11.85
2022-10-05T03:50:56.841Z,13.40
2022-10-05T03:53:30.025Z,10.60
2022-10-05T03:56:06.631Z,7.43
2022-10-05T03:58:40.789Z,12.82
2022-10-05T04:01:14.280Z,11.05
2022-10-05T04:03:47.538Z,7.85
2022-10-05T04:06:22.718Z,8.07
2022-10-05T04:08:56.034Z,9.07
2022-10-05T04:11:32.003Z,7.07
2022-10-05T04:14:07.275Z,8.00
2022-10-05T04:16:42.284Z,7.45
2022-10-05T04:19:18.565Z,9.73
2022-10-05T04:21:53.638Z,7.93
2022-10-05T04:24:30.297Z,9.02
2022-10-05T04:27:02.453Z,9.35
2022-10-05T04:29:38.246Z,7.28
2022-10-05T04:32:23.021Z,11.52
2022-10-05T04:35:08.345Z,10.48
2022-10-05T04:37:52.674Z,10.88
2022-10-05T04:40:40.414Z,16.95
2022-10-05T04:43:19.811Z,9.00
2022-10-05T04:46:12.154Z,11.77
2022-10-05T04:51:39.146Z,8.88
2022-10-05T04:54:22.782Z,6.97
2022-10-05T04:56:58.613Z,9.52
2022-10-05T04:59:47.477Z,10.00
2022-10-05T05:02:29.605Z,10.25
2022-10-05T05:05:23.261Z,11.85
2022-10-05T05:08:03.719Z,8.32
2022-10-05T05:11:06.100Z,8.93
2022-10-05T05:14:06.201Z,11.05
2022-10-05T05:16:39.121Z,9.85
2022-10-05T05:19:25.628Z,11.95
2022-10-05T05:22:02.767Z,7.75
2022-10-05T05:24:50.946Z,8.75
2022-10-05T05:27:44.696Z,7.55
2022-10-05T05:30:22.988Z,11.93
2022-10-05T05:33:05.061Z,12.00
2022-10-05T05:35:49.440Z,15.15
2022-10-05T05:38:31.189Z,13.85
2022-10-05T05:41:14.351Z,12.38
2022-10-05T05:44:06.519Z,11.43
2022-10-05T05:47:02.468Z,10.32
2022-10-05T05:49:40.082Z,9.70
2022-10-05T05:52:17.568Z,10.02
2022-10-05T05:54:54.384Z,12.73
2022-10-05T05:57:26.998Z,10.30
2022-10-05T06:00:05.894Z,8.90
2022-10-05T06:02:57.203Z,11.13
2022-10-05T06:05:31.921Z,13.07
2022-10-05T06:08:11.835Z,11.60
2022-10-05T06:10:50.703Z,10.65
2022-10-05T06:13:29.070Z,13.15
2022-10-05T06:16:09.861Z,16.98
2022-10-05T06:18:42.727Z,10.93
2022-10-05T06:21:20.109Z,10.10
2022-10-05T06:23:56.277Z,12.80
2022-10-05T06:27:20.310Z,9.30
2022-10-05T06:30:18.207Z,13.43
2022-10-05T06:33:12.289Z,11.90
2022-10-05T06:35:57.520Z,10.55
2022-10-05T06:38:50.019Z,11.57
2022-10-05T06:41:32.326Z,14.40
2022-10-05T06:44:09.433Z,14.23
2022-10-05T06:47:18.387Z,16.85
2022-10-05T06:50:17.120Z,17.23
2022-10-05T06:53:22.691Z,18.65
2022-10-05T06:55:59.119Z,21.73
2022-10-05T06:58:50.606Z,25.45
2022-10-05T07:04:11.031Z,19.65
2022-10-05T07:09:28.966Z,15.63
2022-10-05T07:12:11.008Z,16.48
2022-10-05T07:14:59.976Z,16.05
2022-10-05T07:17:45.733Z,16.20
2022-10-05T07:20:20.270Z,14.82
2022-10-05T07:23:16.059Z,13.35
2022-10-05T07:25:51.613Z,28.33
2022-10-05T07:28:35.382Z,14.55
2022-10-05T07:31:11.622Z,15.50
2022-10-05T07:33:47.687Z,14.90
2022-10-05T07:36:40.897Z,11.02
2022-10-05T07:39:18.702Z,10.63
2022-10-05T07:41:54.991Z,9.77
2022-10-05T07:44:32.816Z,10.93
2022-10-05T07:47:09.968Z,10.80
2022-10-05T07:49:49.786Z,9.25
2022-10-05T07:52:25.067Z,11.75
2022-10-05T07:55:05.050Z,11.32
2022-10-05T07:57:41.260Z,10.30
2022-10-05T08:00:19.267Z,9.82
2022-10-05T08:02:53.342Z,7.97
2022-10-05T08:05:28.072Z,8.57
2022-10-05T08:08:05.860Z,11.88
2022-10-05T08:10:43.131Z,10.55
2022-10-05T08:13:18.103Z,11.18
2022-10-05T08:15:52.297Z,8.05
2022-10-05T08:18:45.576Z,14.98
2022-10-05T08:21:18.530Z,20.60
2022-10-05T08:23:52.088Z,12.07
2022-10-05T08:26:30.215Z,13.48
2022-10-05T08:29:13.947Z,15.32
2022-10-05T08:31:50.156Z,13.85
2022-10-05T08:34:27.538Z,18.02
2022-10-05T08:37:05.332Z,16.60
2022-10-05T08:39:41.218Z,18.73
2022-10-05T08:42:44.720Z,16.13
2022-10-05T08:45:41.764Z,11.13
2022-10-05T08:48:49.231Z,11.05
2022-10-05T08:51:47.917Z,11.00
2022-10-05T08:54:38.991Z,9.77
2022-10-05T08:57:32.594Z,11.05
2022-10-05T09:00:11.050Z,20.25
2022-10-05T09:03:12.021Z,14.93
2022-10-05T09:06:14.672Z,10.52
2022-10-05T09:09:06.502Z,8.98
2022-10-05T09:11:38.025Z,9.60
2022-10-05T09:14:35.030Z,12.73
2022-10-05T09:17:39.231Z,12.10
2022-10-05T09:20:32.558Z,12.27
2022-10-05T09:23:15.237Z,11.73
2022-10-05T09:25:59.138Z,15.88
2022-10-05T09:28:35.944Z,21.85
2022-10-05T09:31:35.084Z,21.40
2022-10-05T09:34:45.533Z,18.27
2022-10-05T09:37:35.855Z,11.88
2022-10-05T09:40:47.771Z,9.95
2022-10-05T09:43:43.061Z,9.70
2022-10-05T09:46:45.102Z,9.20
2022-10-05T09:49:54.459Z,9.75
2022-10-05T09:52:56.938Z,10.75
2022-10-05T09:58:59.362Z,8.57
2022-10-05T10:02:01.757Z,10.45
2022-10-05T10:05:02.024Z,7.68
2022-10-05T10:08:04.812Z,8.05
2022-10-05T10:11:05.989Z,7.72
2022-10-05T10:13:57.116Z,5.82
2022-10-05T10:16:54.250Z,8.48
2022-10-05T10:20:03.464Z,13.93
2022-10-05T10:22:51.417Z,8.68
2022-10-05T10:25:55.400Z,8.60
2022-10-05T10:28:42.177Z,5.90
2022-10-05T10:31:27.834Z,7.00
2022-10-05T10:34:26.574Z,6.28
2022-10-05T10:37:12.980Z,11.55
2022-10-05T10:40:05.317Z,7.22
2022-10-05T10:42:43.445Z,5.90
2022-10-05T10:45:21.422Z,6.75
2022-10-05T10:48:00.480Z,7.57
2022-10-05T10:51:05.609Z,6.32
2022-10-05T10:54:14.523Z,8.80
2022-10-05T10:57:04.514Z,10.35
2022-10-05T11:00:07.665Z,10.70
2022-10-05T11:03:14.833Z,7.40
2022-10-05T11:06:03.587Z,6.15
2022-10-05T11:09:00.708Z,8.98
2022-10-05T11:12:01.787Z,9.68
2022-10-05T11:15:07.460Z,10.05
2022-10-05T11:17:54.319Z,6.18
2022-10-05T11:21:09.692Z,8.25
2022-10-05T11:24:11.939Z,6.53
2022-10-05T11:27:09.861Z,5.03
2022-10-05T11:30:12.649Z,5.88
2022-10-05T11:33:21.543Z,8.60
2022-10-05T11:36:12.435Z,7.28
2022-10-05T11:39:12.902Z,8.40
2022-10-05T11:42:09.316Z,4.68
2022-10-05T11:45:06.383Z,6.18
2022-10-05T11:47:40.739Z,7.50
2022-10-05T11:50:21.832Z,5.97
2022-10-05T11:52:57.235Z,10.07
2022-10-05T11:55:34.563Z,5.55
2022-10-05T11:58:09.685Z,8.38
2022-10-05T12:00:45.284Z,10.43
2022-10-05T12:03:34.493Z,8.70
2022-10-05T12:06:18.730Z,6.80
2022-10-05T12:08:59.407Z,9.73
2022-10-05T12:11:41.059Z,6.22
2022-10-05T12:14:21.649Z,6.20
2022-10-05T12:17:00.340Z,6.68
2022-10-05T12:19:36.693Z,7.50
2022-10-05T12:22:16.200Z,4.45
2022-10-05T12:25:02.733Z,6.30
2022-10-05T12:27:39.313Z,6.75
2022-10-05T12:30:16.129Z,5.50
2022-10-05T12:33:01.007Z,7.63
2022-10-05T12:35:47.776Z,9.32
2022-10-05T12:38:27.254Z,5.85
2022-10-05T12:41:05.965Z,5.80
2022-10-05T12:43:47.450Z,10.27
2022-10-05T12:46:36.370Z,6.27
2022-10-05T12:49:28.717Z,6.70
2022-10-05T12:51:59.755Z,5.43
2022-10-05T12:54:43.741Z,7.60
2022-10-05T12:57:22.498Z,8.82
2022-10-05T12:59:59.090Z,5.32
2022-10-05T13:02:39.481Z,5.90
2022-10-05T13:05:25.188Z,6.50
2022-10-05T13:08:14.285Z,5.57
2022-10-05T13:10:49.410Z,7.88
2022-10-05T13:13:41.617Z,5.20
2022-10-05T13:16:18.847Z,5.82
2022-10-05T13:19:17.673Z,6.65
2022-10-05T13:22:14.436Z,6.20
2022-10-05T13:24:53.726Z,7.68
2022-10-05T13:27:29.204Z,7.63
2022-10-05T13:30:03.027Z,4.63
2022-10-05T13:32:37.118Z,4.68
2022-10-05T13:35:27.213Z,7.43
2022-10-05T13:38:04.538Z,5.35
2022-10-05T13:40:40.998Z,4.25
2022-10-05T13:43:24.551Z,4.63
2022-10-05T13:45:57.687Z,4.13
2022-10-05T13:48:57.486Z,5.53
2022-10-05T13:51:31.298Z,5.85
2022-10-05T13:54:09.410Z,4.38
2022-10-05T13:56:45.273Z,5.95
2022-10-05T13:59:25.040Z,5.93
2022-10-05T14:02:00.122Z,4.28
2022-10-05T14:04:31.392Z,8.48
2022-10-05T14:07:30.423Z,5.88
2022-10-05T14:10:00.491Z,5.43
2022-10-05T14:12:30.189Z,6.00
2022-10-05T14:15:14.261Z,11.98
2022-10-05T14:17:47.365Z,13.98
2022-10-05T14:20:23.684Z,8.38
2022-10-05T14:22:58.061Z,6.15
2022-10-05T14:25:27.553Z,4.75
2022-10-05T14:28:06.220Z,7.47
2022-10-05T14:30:37.096Z,7.55
2022-10-05T14:33:17.439Z,7.82
2022-10-05T14:35:49.970Z,6.72
2022-10-05T14:38:22.851Z,8.25
2022-10-05T14:41:18.353Z,7.47
2022-10-05T14:43:56.239Z,6.80
2022-10-05T14:46:29.716Z,7.78
2022-10-05T14:49:19.495Z,6.60
2022-10-05T14:51:48.922Z,7.38
2022-10-05T14:54:37.235Z,5.07
2022-10-05T14:57:13.536Z,8.18
2022-10-05T15:00:11.154Z,7.82
2022-10-05T15:03:10.683Z,6.70
2022-10-05T15:05:50.432Z,4.28
2022-10-05T15:08:36.269Z,8.40
2022-10-05T15:11:09.376Z,8.32
2022-10-05T15:13:42.826Z,7.00
2022-10-05T15:16:20.595Z,9.88
2022-10-05T15:18:59.297Z,11.98
2022-10-05T15:21:48.089Z,6.20
2022-10-05T15:24:21.130Z,5.38
2022-10-05T15:26:52.494Z,14.20
2022-10-05T15:29:38.381Z,8.10
2022-10-05T15:32:22.759Z,11.20
2022-10-05T15:35:10.773Z,12.85
2022-10-05T15:37:43.968Z,9.90
2022-10-05T15:40:22.431Z,18.35
2022-10-05T15:42:56.006Z,10.38
2022-10-05T15:45:32.883Z,11.52
2022-10-05T15:48:06.687Z,19.23
2022-10-05T15:50:47.004Z,12.48
2022-10-05T15:53:23.047Z,11.75
2022-10-05T15:55:54.841Z,20.73
2022-10-05T15:58:55.956Z,17.75
2022-10-05T16:01:40.595Z,19.75
2022-10-05T16:04:16.032Z,16.25
2022-10-05T16:07:21.958Z,10.05
2022-10-05T16:09:58.145Z,11.75
2022-10-05T16:12:46.045Z,15.93
2022-10-05T16:15:26.651Z,12.07
2022-10-05T16:18:34.157Z,13.60
2022-10-05T16:21:14.275Z,11.20
2022-10-05T16:23:56.754Z,12.93
2022-10-05T16:26:38.731Z,17.90
2022-10-05T16:29:16.359Z,14.90
2022-10-05T16:31:55.522Z,13.98
2022-10-05T16:34:37.748Z,13.48
2022-10-05T16:37:15.055Z,14.07
2022-10-05T16:39:55.313Z,13.30
2022-10-05T16:42:42.353Z,16.33
2022-10-05T16:45:25.393Z,12.57
2022-10-05T16:48:04.482Z,15.95
2022-10-05T16:50:41.199Z,11.80
2022-10-05T16:53:18.020Z,12.63
2022-10-05T16:55:53.281Z,12.52
2022-10-05T17:03:35.713Z,14.25
2022-10-05T17:06:17.295Z,12.10
2022-10-05T17:09:03.123Z,11.15
2022-10-05T17:11:43.879Z,14.00
2022-10-05T17:14:33.082Z,11.45
2022-10-05T17:17:22.348Z,11.45
2022-10-05T17:20:07.554Z,16.25
2022-10-05T17:22:46.658Z,13.90
2022-10-05T17:25:19.498Z,12.98
2022-10-05T17:27:54.776Z,15.85
2022-10-05T17:30:54.109Z,15.73
2022-10-05T17:33:26.394Z,19.23
2022-10-05T17:36:13.574Z,16.27
2022-10-05T17:38:53.230Z,18.27
2022-10-05T17:41:27.056Z,12.70
2022-10-05T17:44:24.473Z,20.33
2022-10-05T17:46:56.183Z,19.02
2022-10-05T17:50:16.446Z,16.83
2022-10-05T17:53:24.076Z,16.30
2022-10-05T17:56:04.630Z,17.83
2022-10-05T17:59:01.559Z,17.10
2022-10-05T18:01:32.922Z,18.65
2022-10-05T18:04:26.170Z,16.25
2022-10-05T18:07:03.331Z,18.45
2022-10-05T18:09:38.087Z,15.07
2022-10-05T18:12:28.977Z,20.27
2022-10-05T18:15:02.653Z,15.13
2022-10-05T18:17:45.329Z,18.00
2022-10-05T18:20:21.857Z,19.30
2022-10-05T18:22:53.100Z,19.23
2022-10-05T18:25:31.115Z,13.75
2022-10-05T18:28:19.235Z,19.85
2022-10-05T18:31:03.353Z,15.15
2022-10-05T18:34:00.136Z,16.83
2022-10-05T18:36:44.679Z,21.75
2022-10-05T18:39:27.743Z,13.70
2022-10-05T18:42:11.695Z,17.45
2022-10-05T18:44:44.018Z,17.20
2022-10-05T18:47:19.525Z,15.25
2022-10-05T18:50:01.911Z,13.10
2022-10-05T18:52:45.140Z,13.35
2022-10-05T18:55:22.040Z,14.70
2022-10-05T18:58:17.993Z,14.27
2022-10-05T19:01:10.748Z,16.02
2022-10-05T19:03:51.314Z,15.50
2022-10-05T19:06:26.334Z,13.68
2022-10-05T19:09:04.162Z,17.67
2022-10-05T19:11:41.039Z,18.48
2022-10-05T19:14:21.517Z,15.05
2022-10-05T19:17:07.302Z,14.73
2022-10-05T19:19:45.173Z,20.02
2022-10-05T19:22:26.331Z,18.05
2022-10-05T19:25:17.409Z,19.02
2022-10-05T19:27:56.889Z,18.65
2022-10-05T19:30:32.119Z,16.80
2022-10-05T19:33:19.238Z,19.17
2022-10-05T19:36:02.192Z,19.55
2022-10-05T19:38:37.344Z,15.93
2022-10-05T19:41:15.776Z,18.05
2022-10-05T19:44:10.247Z,21.23
2022-10-05T19:46:55.265Z,17.38
2022-10-05T19:49:39.169Z,13.52
2022-10-05T19:52:21.241Z,15.80
2022-10-05T19:55:04.886Z,13.93
2022-10-05T19:57:34.837Z,17.30
2022-10-05T20:00:04.291Z,15.82
2022-10-05T20:02:39.959Z,14.23
2022-10-05T20:05:14.872Z,15.18
2022-10-05T20:07:43.687Z,17.30
2022-10-05T20:10:29.845Z,18.85
2022-10-05T20:13:00.357Z,15.20
2022-10-05T20:16:02.766Z,14.18
2022-10-05T20:19:08.118Z,16.35
2022-10-05T20:21:45.072Z,17.23
2022-10-05T20:24:16.168Z,14.75
2022-10-05T20:27:04.608Z,21.58
2022-10-05T20:29:36.776Z,14.82
2022-10-05T20:32:08.895Z,14.88
2022-10-05T20:34:42.391Z,16.80
2022-10-05T20:37:12.329Z,14.82
2022-10-05T20:39:42.060Z,19.85
2022-10-05T20:42:12.096Z,14.95
2022-10-05T20:44:41.544Z,13.98
2022-10-05T20:47:10.483Z,18.02
2022-10-05T20:49:41.678Z,14.93
2022-10-05T20:52:13.417Z,16.08
2022-10-05T20:54:42.293Z,12.77
2022-10-05T20:57:11.509Z,15.23
2022-10-05T20:59:40.465Z,16.92
2022-10-05T21:02:10.125Z,14.20
2022-10-05T21:04:41.668Z,14.15
2022-10-05T21:07:11.137Z,19.55
2022-10-05T21:09:41.080Z,14.40
2022-10-05T21:12:10.316Z,22.67
2022-10-05T21:14:40.784Z,14.85
2022-10-05T21:17:09.725Z,16.63
2022-10-05T21:19:40.675Z,16.00
2022-10-05T21:22:12.422Z,19.27
2022-10-05T21:24:42.313Z,16.70
2022-10-05T21:27:11.172Z,13.15
2022-10-05T21:29:41.304Z,17.30
2022-10-05T21:32:11.958Z,17.20
2022-10-05T21:34:41.358Z,15.10
2022-10-05T21:37:11.615Z,17.70
2022-10-05T21:39:40.727Z,15.07
2022-10-05T21:42:09.520Z,13.13
2022-10-05T21:44:38.324Z,18.58
2022-10-05T21:47:08.230Z,17.85
2022-10-05T21:49:37.695Z,16.08
2022-10-05T21:52:06.910Z,14.70
2022-10-05T21:54:37.508Z,18.42
2022-10-05T21:57:06.228Z,13.45
2022-10-05T21:59:36.346Z,17.17
2022-10-05T22:02:05.333Z,13.90
2022-10-05T22:04:34.032Z,16.65
2022-10-05T22:07:02.744Z,15.88
2022-10-05T22:09:31.355Z,15.85
2022-10-05T22:12:02.572Z,13.77
2022-10-05T22:14:32.314Z,11.40
2022-10-05T22:17:01.065Z,14.82
2022-10-05T22:19:29.655Z,12.82
2022-10-05T22:21:58.488Z,13.85
2022-10-05T22:24:26.986Z,11.32
2022-10-05T22:26:55.767Z,15.48
2022-10-05T22:29:25.869Z,16.33
2022-10-05T22:31:56.979Z,12.93
2022-10-05T22:34:25.655Z,13.00
2022-10-05T22:36:54.608Z,13.52
2022-10-05T22:39:23.404Z,14.55
2022-10-05T22:41:52.974Z,14.60
2022-10-05T22:44:22.458Z,10.57
2022-10-05T22:46:52.741Z,13.73
2022-10-05T22:49:21.879Z,13.50
2022-10-05T22:51:51.264Z,12.60
2022-10-05T22:54:20.001Z,12.88
2022-10-05T22:56:48.690Z,10.60
2022-10-05T22:59:18.003Z,14.40
2022-10-05T23:01:46.915Z,11.02
2022-10-05T23:04:16.922Z,10.20
2022-10-05T23:06:45.562Z,11.02
2022-10-05T23:09:14.309Z,13.98
2022-10-05T23:11:43.162Z,12.68
2022-10-05T23:14:11.931Z,13.73
2022-10-05T23:16:40.711Z,9.65
2022-10-05T23:19:09.676Z,11.27
2022-10-05T23:21:40.317Z,10.27
2022-10-05T23:24:09.143Z,10.63
2022-10-05T23:26:37.989Z,11.48
2022-10-05T23:29:09.082Z,10.02
2022-10-05T23:31:37.913Z,14.27
2022-10-05T23:34:06.649Z,11.68
2022-10-05T23:36:36.136Z,13.57
2022-10-05T23:39:06.531Z,9.43
2022-10-05T23:41:38.371Z,8.38
2022-10-05T23:44:07.053Z,13.05
2022-10-05T23:46:35.794Z,7.53
2022-10-05T23:49:04.591Z,11.65
2022-10-05T23:51:34.901Z,7.53
2022-10-05T23:54:06.043Z,14.07
2022-10-05T23:56:35.435Z,10.98
2022-10-05T23:59:04.183Z,8.73
